Time;durP1;ratioP1;P1;durP2;ratioP2;P2;SDS_P1;SDS_P2;PMS_P1;PMS_P2;Temp;Humidity;BMP_temperature;BMP_pressure;BME280_temperature;BME280_humidity;BME280_pressure;Samples;Min_cycle;Max_cycle;Signal;HPM_P1;HPM_P2
2023/06/30 00:02:06;;;;;;;10.40;3.97;;;14.80;99.90;;;;;;4956082;28;20044;-56
2023/06/30 00:04:32;;;;;;;11.55;3.50;;;14.80;99.90;;;;;;4957928;28;20035;-56
2023/06/30 00:06:59;;;;;;;12.02;3.70;;;14.70;99.90;;;;;;4941917;28;20039;-55
2023/06/30 00:09:25;;;;;;;7.60;3.63;;;14.70;99.90;;;;;;4956864;28;20040;-55
2023/06/30 00:11:53;;;;;;;9.52;3.65;;;14.70;99.90;;;;;;4959598;28;20074;-56
2023/06/30 00:14:20;;;;;;;8.63;3.28;;;14.60;99.90;;;;;;4958732;28;20047;-56
2023/06/30 00:16:46;;;;;;;9.15;3.90;;;14.60;99.90;;;;;;4958841;28;20401;-56
2023/06/30 00:19:12;;;;;;;11.90;3.35;;;14.50;99.90;;;;;;4959635;28;20412;-55
2023/06/30 00:21:41;;;;;;;9.15;3.53;;;14.50;99.90;;;;;;4960609;28;20042;-57
2023/06/30 00:24:12;;;;;;;9.52;3.08;;;14.50;99.90;;;;;;4941732;28;20031;-56
2023/06/30 00:26:38;;;;;;;10.95;3.35;;;14.50;99.90;;;;;;4958118;28;20061;-56
2023/06/30 00:29:05;;;;;;;11.45;3.95;;;14.40;99.90;;;;;;4957594;28;20039;-56
2023/06/30 00:31:30;;;;;;;7.03;3.50;;;14.40;99.90;;;;;;4958287;28;20046;-54
2023/06/30 00:33:57;;;;;;;10.90;3.47;;;14.30;99.90;;;;;;4957635;28;20043;-54
2023/06/30 00:36:23;;;;;;;10.20;3.70;;;14.30;99.90;;;;;;4956344;28;20043;-56
2023/06/30 00:38:50;;;;;;;11.95;3.50;;;14.30;99.90;;;;;;4958614;28;20137;-56
2023/06/30 00:41:16;;;;;;;12.18;3.92;;;14.20;99.90;;;;;;4956460;28;20047;-55
2023/06/30 00:43:41;;;;;;;8.73;3.50;;;14.20;99.90;;;;;;4961061;28;20050;-56
2023/06/30 00:46:12;;;;;;;9.48;3.83;;;14.20;99.90;;;;;;4960615;28;20126;-55
2023/06/30 00:48:38;;;;;;;16.98;3.70;;;14.10;99.90;;;;;;4960518;28;20039;-56
2023/06/30 00:51:04;;;;;;;13.00;4.07;;;14.10;99.90;;;;;;4959789;28;20440;-56
2023/06/30 00:53:31;;;;;;;8.05;3.30;;;14.10;99.90;;;;;;4959948;28;20365;-56
2023/06/30 00:55:57;;;;;;;14.63;3.55;;;14.10;99.90;;;;;;4960539;28;20039;-55
2023/06/30 00:58:23;;;;;;;9.75;3.75;;;14.10;99.90;;;;;;4958231;28;20039;-53
2023/06/30 01:00:54;;;;;;;12.25;4.15;;;14.00;99.90;;;;;;4960918;28;20129;-54
2023/06/30 01:03:34;;;;;;;7.82;3.50;;;14.00;99.90;;;;;;4956934;28;20062;-56
2023/06/30 01:06:16;;;;;;;10.07;3.67;;;14.00;99.90;;;;;;4956933;28;20552;-56
2023/06/30 01:09:00;;;;;;;11.40;3.35;;;14.00;99.90;;;;;;4941933;28;20053;-55
2023/06/30 01:11:26;;;;;;;10.25;3.58;;;13.90;99.90;;;;;;4959592;28;20030;-55
2023/06/30 01:13:55;;;;;;;7.53;3.40;;;13.90;99.90;;;;;;4954568;28;20035;-56
2023/06/30 01:16:23;;;;;;;6.05;3.22;;;13.90;99.90;;;;;;4955663;28;20488;-53
2023/06/30 01:18:53;;;;;;;8.32;3.33;;;13.90;99.90;;;;;;4931921;28;20145;-56
2023/06/30 01:21:21;;;;;;;10.55;3.63;;;13.80;99.90;;;;;;4953580;28;20039;-56
2023/06/30 01:24:04;;;;;;;6.32;3.60;;;13.80;99.90;;;;;;4955152;28;20154;-54
2023/06/30 01:26:34;;;;;;;7.75;3.50;;;13.80;99.90;;;;;;4957378;28;20046;-56
2023/06/30 01:29:06;;;;;;;11.23;4.10;;;13.70;99.90;;;;;;4953456;28;20099;-56
2023/06/30 01:31:32;;;;;;;17.02;4.18;;;13.70;99.90;;;;;;4934471;28;20039;-55
2023/06/30 01:34:02;;;;;;;12.20;3.78;;;13.70;99.90;;;;;;4955371;28;20042;-56
2023/06/30 01:36:28;;;;;;;9.00;4.05;;;13.60;99.90;;;;;;4955377;28;20031;-54
2023/06/30 01:38:54;;;;;;;10.93;4.22;;;13.60;99.90;;;;;;4943816;28;20512;-55
2023/06/30 01:41:23;;;;;;;14.25;3.88;;;13.60;99.90;;;;;;4956256;28;20134;-56
2023/06/30 01:43:50;;;;;;;12.95;4.00;;;13.60;99.90;;;;;;4935596;28;20117;-57
2023/06/30 01:46:17;;;;;;;12.27;3.90;;;13.50;99.90;;;;;;4957330;28;20392;-56
2023/06/30 01:48:43;;;;;;;13.98;4.00;;;13.50;99.90;;;;;;4959387;28;20047;-56
2023/06/30 01:51:12;;;;;;;8.90;3.80;;;13.50;99.90;;;;;;4954602;28;20053;-56
2023/06/30 01:53:39;;;;;;;16.70;4.50;;;13.40;99.90;;;;;;4956981;28;20082;-56
2023/06/30 01:56:05;;;;;;;11.15;4.28;;;13.40;99.90;;;;;;4945733;28;20082;-55
2023/06/30 01:58:31;;;;;;;13.38;4.32;;;13.40;99.90;;;;;;4958978;28;20038;-53
2023/06/30 02:00:58;;;;;;;10.07;4.40;;;13.40;99.90;;;;;;4938999;28;20043;-55
2023/06/30 02:03:23;;;;;;;10.77;4.15;;;13.30;99.90;;;;;;4958187;28;20043;-56
2023/06/30 02:05:50;;;;;;;15.27;4.63;;;13.30;99.90;;;;;;4943523;28;20104;-56
2023/06/30 02:08:16;;;;;;;12.27;4.05;;;13.30;99.90;;;;;;4951567;28;20125;-56
2023/06/30 02:10:42;;;;;;;14.07;3.97;;;13.30;99.90;;;;;;4955979;28;20049;-56
2023/06/30 02:13:07;;;;;;;11.90;4.28;;;13.20;99.90;;;;;;4950017;28;20055;-54
2023/06/30 02:15:33;;;;;;;9.05;3.88;;;13.20;99.90;;;;;;4946008;28;20526;-54
2023/06/30 02:17:59;;;;;;;11.20;4.20;;;13.20;99.90;;;;;;4940364;28;20039;-55
2023/06/30 02:20:25;;;;;;;9.25;4.10;;;13.20;99.90;;;;;;4945409;28;20079;-56
2023/06/30 02:22:51;;;;;;;13.38;4.05;;;13.20;99.90;;;;;;4957039;28;20126;-55
2023/06/30 02:25:16;;;;;;;9.48;3.88;;;13.10;99.90;;;;;;4960861;28;20046;-56
2023/06/30 02:27:45;;;;;;;10.63;3.95;;;13.10;99.90;;;;;;4938566;28;20488;-55
2023/06/30 02:30:12;;;;;;;10.40;4.10;;;13.10;99.90;;;;;;4952843;28;20039;-56
2023/06/30 02:32:38;;;;;;;12.57;3.63;;;13.10;99.90;;;;;;4956185;28;20114;-54
2023/06/30 02:35:08;;;;;;;12.00;3.90;;;13.10;99.90;;;;;;4955448;28;20039;-54
2023/06/30 02:37:34;;;;;;;10.25;3.78;;;13.10;99.90;;;;;;4957060;28;20145;-55
2023/06/30 02:40:00;;;;;;;9.50;3.80;;;13.00;99.90;;;;;;4954511;28;20114;-55
2023/06/30 02:42:26;;;;;;;8.98;3.35;;;13.00;99.90;;;;;;4955956;28;20400;-56
2023/06/30 02:44:51;;;;;;;10.02;4.13;;;13.00;99.90;;;;;;4955540;28;20069;-56
2023/06/30 02:47:17;;;;;;;9.50;3.65;;;13.00;99.90;;;;;;4953525;28;20138;-55
2023/06/30 02:49:43;;;;;;;10.32;3.70;;;12.90;99.90;;;;;;4955539;28;20054;-54
2023/06/30 02:52:09;;;;;;;5.80;3.45;;;12.90;99.90;;;;;;4944568;28;20546;-56
2023/06/30 02:54:35;;;;;;;8.27;4.15;;;12.90;99.90;;;;;;4956387;28;20067;-56
2023/06/30 02:57:00;;;;;;;10.80;4.10;;;12.80;99.90;;;;;;4952317;28;20646;-56
2023/06/30 02:59:26;;;;;;;6.53;3.40;;;12.80;99.90;;;;;;4951485;28;20055;-56
2023/06/30 03:01:52;;;;;;;8.52;3.45;;;12.80;99.90;;;;;;4953253;28;20085;-54
2023/06/30 03:04:17;;;;;;;14.07;4.18;;;12.70;99.90;;;;;;4957315;28;20100;-56
2023/06/30 03:06:43;;;;;;;10.50;4.07;;;12.70;99.90;;;;;;4955133;28;20344;-55
2023/06/30 03:09:09;;;;;;;10.93;3.83;;;12.70;99.90;;;;;;4956866;28;20508;-55
2023/06/30 03:11:35;;;;;;;6.68;3.38;;;12.60;99.90;;;;;;4956572;28;20073;-55
2023/06/30 03:14:00;;;;;;;10.50;4.35;;;12.60;99.90;;;;;;4962288;28;20081;-55
2023/06/30 03:16:26;;;;;;;9.73;3.63;;;12.60;99.90;;;;;;4962711;28;20038;-56
2023/06/30 03:18:52;;;;;;;10.95;3.92;;;12.60;99.90;;;;;;4952198;28;20181;-56
2023/06/30 03:21:18;;;;;;;11.05;4.28;;;12.50;99.90;;;;;;4962860;28;20055;-56
2023/06/30 03:23:45;;;;;;;10.18;3.78;;;12.50;99.90;;;;;;4962853;28;20039;-55
2023/06/30 03:26:13;;;;;;;8.60;3.78;;;12.50;99.90;;;;;;4957838;28;20046;-56
2023/06/30 03:28:39;;;;;;;9.27;3.70;;;12.50;99.90;;;;;;4961048;28;20039;-54
2023/06/30 03:31:04;;;;;;;9.98;4.07;;;12.50;99.90;;;;;;4958029;28;20039;-56
2023/06/30 03:33:30;;;;;;;9.90;4.32;;;12.50;99.90;;;;;;4959691;28;20038;-56
2023/06/30 03:35:56;;;;;;;6.00;3.83;;;12.50;99.90;;;;;;4958069;28;20057;-56
2023/06/30 03:38:22;;;;;;;8.80;3.55;;;12.40;99.90;;;;;;4957873;28;20070;-55
2023/06/30 03:40:47;;;;;;;11.00;4.10;;;12.50;99.90;;;;;;4939713;28;20110;-52
2023/06/30 03:43:13;;;;;;;10.02;4.40;;;12.40;99.90;;;;;;4957675;28;20042;-56
2023/06/30 03:45:39;;;;;;;9.10;3.95;;;12.40;99.90;;;;;;4958200;28;20046;-55
2023/06/30 03:48:05;;;;;;;10.52;3.90;;;12.40;99.90;;;;;;4955516;28;20648;-54
2023/06/30 03:50:31;;;;;;;7.47;3.60;;;12.40;99.90;;;;;;4935450;28;20085;-55
2023/06/30 03:52:57;;;;;;;9.02;3.70;;;12.40;99.90;;;;;;4920200;28;20039;-55
2023/06/30 03:55:22;;;;;;;12.25;4.00;;;12.40;99.90;;;;;;4957725;28;20046;-56
2023/06/30 03:57:48;;;;;;;8.10;4.13;;;12.40;99.90;;;;;;4940367;28;20066;-55
2023/06/30 04:00:14;;;;;;;9.43;4.28;;;12.40;99.90;;;;;;4957914;28;20046;-56
2023/06/30 04:02:40;;;;;;;14.48;5.00;;;12.40;99.90;;;;;;4954329;28;20394;-56
2023/06/30 04:05:06;;;;;;;6.75;3.88;;;12.40;99.90;;;;;;4958428;28;20125;-55
2023/06/30 04:07:32;;;;;;;9.82;4.28;;;12.40;99.90;;;;;;4959344;28;20047;-54
2023/06/30 04:09:58;;;;;;;11.20;4.75;;;12.40;99.90;;;;;;4955555;28;20521;-56
2023/06/30 04:12:24;;;;;;;11.20;4.18;;;12.50;99.90;;;;;;4954922;28;20034;-53
2023/06/30 04:14:49;;;;;;;7.88;4.03;;;12.50;99.90;;;;;;4959587;28;20066;-56
2023/06/30 04:17:15;;;;;;;9.65;4.25;;;12.50;99.90;;;;;;4955075;28;20061;-55
2023/06/30 04:19:41;;;;;;;8.10;4.07;;;12.50;99.90;;;;;;4958826;28;20457;-55
2023/06/30 04:22:06;;;;;;;9.93;3.80;;;12.60;99.90;;;;;;4958596;28;20030;-55
2023/06/30 04:24:32;;;;;;;11.65;4.18;;;12.50;99.90;;;;;;4954485;28;20100;-55
2023/06/30 04:26:58;;;;;;;6.88;3.75;;;12.60;99.90;;;;;;4957110;28;20484;-54
2023/06/30 04:29:24;;;;;;;8.60;4.38;;;12.60;99.90;;;;;;4934262;28;20050;-55
2023/06/30 04:31:50;;;;;;;9.45;4.22;;;12.60;99.90;;;;;;4959353;28;20500;-55
2023/06/30 04:34:16;;;;;;;11.63;4.38;;;12.70;99.90;;;;;;4937280;28;20035;-55
2023/06/30 04:36:41;;;;;;;8.25;4.03;;;12.70;99.90;;;;;;4954590;28;20042;-55
2023/06/30 04:39:07;;;;;;;9.25;4.05;;;12.70;99.90;;;;;;4946962;28;20065;-55
2023/06/30 04:41:33;;;;;;;12.07;5.05;;;12.80;99.90;;;;;;4950670;28;20070;-53
2023/06/30 04:43:59;;;;;;;10.57;4.28;;;12.80;99.90;;;;;;4940529;28;20054;-54
2023/06/30 04:46:26;;;;;;;9.50;4.25;;;12.80;99.90;;;;;;4916543;28;20391;-56
2023/06/30 04:48:53;;;;;;;9.32;4.20;;;12.90;99.90;;;;;;4943857;28;20419;-55
2023/06/30 04:51:19;;;;;;;12.52;4.50;;;12.90;99.90;;;;;;4943527;28;20070;-56
2023/06/30 04:53:45;;;;;;;16.17;4.38;;;13.00;99.90;;;;;;4953539;28;20039;-54
2023/06/30 04:56:10;;;;;;;9.95;4.80;;;13.00;99.90;;;;;;4939895;28;20493;-55
2023/06/30 04:58:36;;;;;;;15.13;4.70;;;13.10;99.90;;;;;;4960610;28;20115;-56
2023/06/30 05:01:04;;;;;;;9.82;4.20;;;13.10;99.90;;;;;;4940894;28;20061;-55
2023/06/30 05:03:30;;;;;;;7.78;4.25;;;13.10;99.90;;;;;;4953768;28;20043;-56
2023/06/30 05:05:57;;;;;;;7.93;4.53;;;13.20;99.90;;;;;;4957574;28;20082;-56
2023/06/30 05:08:23;;;;;;;12.88;5.10;;;13.30;99.90;;;;;;4950046;28;20043;-54
2023/06/30 05:10:49;;;;;;;9.48;4.32;;;13.30;99.90;;;;;;4953740;28;20047;-55
2023/06/30 05:13:15;;;;;;;12.02;4.80;;;13.40;99.90;;;;;;4952697;28;20073;-55
2023/06/30 05:15:41;;;;;;;11.98;4.70;;;13.40;99.90;;;;;;4958198;28;20038;-55
2023/06/30 05:18:06;;;;;;;9.82;4.80;;;13.50;99.90;;;;;;4950842;28;20035;-56
2023/06/30 05:20:33;;;;;;;13.30;4.70;;;13.50;99.90;;;;;;4935895;28;20038;-56
2023/06/30 05:23:00;;;;;;;11.65;4.95;;;13.60;99.90;;;;;;4936781;28;20089;-55
2023/06/30 05:25:25;;;;;;;11.38;4.78;;;13.70;99.90;;;;;;4951175;28;20060;-54
2023/06/30 05:27:51;;;;;;;11.02;4.78;;;13.70;99.90;;;;;;4951338;28;20616;-55
2023/06/30 05:30:18;;;;;;;9.77;4.20;;;13.90;99.90;;;;;;4954760;28;20043;-55
2023/06/30 05:32:44;;;;;;;12.23;4.85;;;14.00;99.90;;;;;;4953445;28;20043;-55
2023/06/30 05:35:10;;;;;;;11.55;5.00;;;14.10;99.90;;;;;;4951593;28;20144;-53
2023/06/30 05:37:36;;;;;;;12.43;4.30;;;14.20;99.90;;;;;;4955631;28;20101;-52
2023/06/30 05:40:02;;;;;;;10.85;4.35;;;14.30;99.90;;;;;;4955431;28;20090;-55
2023/06/30 05:42:28;;;;;;;9.98;4.10;;;14.40;99.90;;;;;;4951594;28;20049;-53
2023/06/30 05:44:54;;;;;;;9.88;4.13;;;14.40;99.90;;;;;;4934061;28;20082;-55
2023/06/30 05:47:20;;;;;;;9.15;4.63;;;14.50;99.90;;;;;;4953067;28;20078;-56
2023/06/30 05:49:46;;;;;;;10.57;4.05;;;14.60;99.90;;;;;;4961889;28;20399;-56
2023/06/30 05:52:11;;;;;;;10.48;3.85;;;14.70;99.90;;;;;;4954178;28;20500;-56
2023/06/30 05:54:37;;;;;;;9.98;3.85;;;14.80;99.90;;;;;;4960481;28;20036;-55
2023/06/30 05:57:03;;;;;;;8.40;4.00;;;14.80;99.90;;;;;;4953464;28;20451;-53
2023/06/30 05:59:30;;;;;;;9.73;3.65;;;15.00;99.90;;;;;;4954602;28;20121;-56
2023/06/30 06:01:56;;;;;;;12.80;4.32;;;15.00;99.90;;;;;;4959715;28;20147;-56
2023/06/30 06:04:22;;;;;;;9.38;3.65;;;15.10;99.90;;;;;;4946728;28;20091;-57
2023/06/30 06:06:48;;;;;;;10.55;4.15;;;15.10;99.90;;;;;;4954450;28;20047;-56
2023/06/30 06:09:14;;;;;;;9.82;3.83;;;15.10;99.90;;;;;;4940942;28;20101;-56
2023/06/30 06:11:39;;;;;;;8.48;3.88;;;15.20;99.90;;;;;;4954690;28;20093;-55
2023/06/30 06:14:05;;;;;;;13.35;4.00;;;15.20;99.90;;;;;;4931562;28;20035;-54
2023/06/30 06:16:31;;;;;;;11.70;3.40;;;15.30;99.90;;;;;;4940195;28;20038;-56
2023/06/30 06:18:57;;;;;;;10.00;3.83;;;15.40;99.90;;;;;;4961252;28;20067;-56
2023/06/30 06:21:27;;;;;;;10.88;3.80;;;15.50;99.90;;;;;;4962517;28;20050;-55
2023/06/30 06:23:54;;;;;;;11.00;3.20;;;15.60;99.90;;;;;;4962111;28;20101;-56
2023/06/30 06:26:19;;;;;;;13.25;3.65;;;15.80;99.90;;;;;;4961016;28;20055;-56
2023/06/30 06:28:45;;;;;;;9.02;3.03;;;15.90;99.90;;;;;;4961337;28;20066;-57
2023/06/30 06:31:11;;;;;;;8.40;3.15;;;15.90;99.90;;;;;;4959849;28;20476;-56
2023/06/30 06:33:36;;;;;;;7.75;2.78;;;16.10;99.90;;;;;;4941759;28;20043;-55
2023/06/30 06:36:02;;;;;;;9.85;2.45;;;16.20;99.90;;;;;;4964442;28;20526;-56
2023/06/30 06:38:28;;;;;;;6.90;2.60;;;16.30;99.90;;;;;;4963498;28;20054;-56
2023/06/30 06:40:55;;;;;;;10.90;2.50;;;16.40;99.90;;;;;;4957778;28;20089;-56
2023/06/30 06:43:25;;;;;;;10.90;2.35;;;16.50;99.90;;;;;;4960373;28;20450;-56
2023/06/30 06:45:52;;;;;;;7.80;2.40;;;16.60;99.90;;;;;;4968146;28;20403;-56
2023/06/30 06:48:22;;;;;;;6.68;2.08;;;16.70;99.90;;;;;;4949457;28;20051;-57
2023/06/30 06:50:51;;;;;;;6.85;2.45;;;16.80;99.90;;;;;;4948800;28;20131;-56
2023/06/30 06:53:24;;;;;;;5.53;2.20;;;16.80;99.90;;;;;;4963734;28;20038;-56
2023/06/30 06:55:50;;;;;;;;;;;16.90;99.90;;;;;;4962568;28;20031;-56
2023/06/30 06:58:17;;;;;;;6.43;2.50;;;16.90;99.90;;;;;;4960565;28;19932;-56
2023/06/30 07:00:44;;;;;;;9.25;2.47;;;17.00;99.90;;;;;;4958598;28;20220;-56
2023/06/30 07:03:10;;;;;;;6.22;2.30;;;17.00;99.90;;;;;;4943888;28;20074;-56
2023/06/30 07:05:36;;;;;;;8.13;2.30;;;17.10;99.90;;;;;;4960709;28;20146;-56
2023/06/30 07:08:04;;;;;;;4.72;2.17;;;17.20;99.90;;;;;;4962356;28;20034;-57
2023/06/30 07:10:30;;;;;;;8.95;2.08;;;17.30;99.90;;;;;;4959530;28;20051;-57
2023/06/30 07:12:56;;;;;;;11.18;2.80;;;17.40;99.90;;;;;;4961535;28;20033;-56
2023/06/30 07:15:22;;;;;;;10.15;2.40;;;17.50;99.90;;;;;;4953216;28;20043;-56
2023/06/30 07:17:48;;;;;;;12.43;2.63;;;17.50;99.90;;;;;;4948250;28;20078;-55
2023/06/30 07:20:14;;;;;;;7.80;1.90;;;17.50;99.90;;;;;;4922611;28;20051;-56
2023/06/30 07:22:39;;;;;;;4.32;1.60;;;17.40;99.90;;;;;;4936901;28;20088;-56
2023/06/30 07:25:07;;;;;;;6.38;1.77;;;17.40;99.90;;;;;;4935845;28;20089;-56
2023/06/30 07:27:35;;;;;;;3.35;1.50;;;17.30;99.90;;;;;;4958351;28;20506;-56
2023/06/30 07:30:01;;;;;;;5.40;1.50;;;17.40;99.90;;;;;;4957620;28;20078;-56
2023/06/30 07:32:26;;;;;;;4.47;1.27;;;17.40;99.90;;;;;;4956576;28;20050;-56
2023/06/30 07:34:52;;;;;;;3.90;1.50;;;17.50;99.90;;;;;;4953674;28;21079;-55
2023/06/30 07:37:18;;;;;;;7.22;1.85;;;17.50;99.90;;;;;;4953729;28;20047;-56
2023/06/30 07:39:44;;;;;;;7.85;1.60;;;17.50;99.90;;;;;;4956109;28;20495;-56
2023/06/30 07:42:09;;;;;;;9.95;2.00;;;17.70;99.90;;;;;;4940036;28;20511;-54
2023/06/30 07:44:35;;;;;;;6.22;2.25;;;17.80;99.90;;;;;;4940858;28;20440;-56
2023/06/30 07:47:01;;;;;;;10.77;2.10;;;17.90;99.90;;;;;;4950138;28;20507;-56
2023/06/30 07:49:27;;;;;;;7.30;1.80;;;18.00;99.90;;;;;;4954692;28;20053;-56
2023/06/30 07:51:52;;;;;;;15.10;1.70;;;18.10;99.90;;;;;;4953515;28;20058;-56
2023/06/30 07:54:18;;;;;;;8.15;1.98;;;18.10;99.90;;;;;;4954370;28;20046;-55
2023/06/30 07:56:46;;;;;;;7.90;2.05;;;18.00;99.90;;;;;;4950538;28;20490;-54
2023/06/30 07:59:11;;;;;;;3.90;1.45;;;17.80;99.90;;;;;;4951160;28;20736;-56
2023/06/30 08:01:37;;;;;;;6.80;1.92;;;17.70;99.90;;;;;;4950150;28;20093;-57
2023/06/30 08:04:03;;;;;;;6.72;1.98;;;17.70;99.90;;;;;;4950241;28;20062;-56
2023/06/30 08:06:29;;;;;;;7.63;1.80;;;17.80;99.90;;;;;;4953973;28;20133;-56
2023/06/30 08:08:54;;;;;;;11.52;2.22;;;18.00;99.90;;;;;;4956697;28;20491;-56
2023/06/30 08:11:20;;;;;;;6.03;1.65;;;18.20;99.90;;;;;;4953208;28;20047;-56
2023/06/30 08:13:46;;;;;;;7.78;1.90;;;18.40;99.90;;;;;;4954985;28;20058;-57
2023/06/30 08:16:12;;;;;;;4.53;1.73;;;18.50;99.90;;;;;;4952131;28;20035;-55
2023/06/30 08:18:38;;;;;;;9.40;2.08;;;18.50;99.90;;;;;;4926365;28;20058;-55
2023/06/30 08:21:04;;;;;;;5.28;1.20;;;18.60;99.90;;;;;;4937460;28;20055;-56
2023/06/30 08:23:30;;;;;;;3.55;1.40;;;18.70;99.90;;;;;;4947443;28;20149;-56
2023/06/30 08:25:56;;;;;;;8.57;1.58;;;18.80;99.90;;;;;;4953026;28;20073;-56
2023/06/30 08:28:22;;;;;;;5.88;1.42;;;18.80;99.90;;;;;;4945420;28;20273;-57
2023/06/30 08:30:48;;;;;;;4.65;1.48;;;18.90;99.90;;;;;;4951235;28;20089;-57
2023/06/30 08:33:14;;;;;;;5.53;1.20;;;18.90;99.90;;;;;;4958444;28;20130;-56
2023/06/30 08:35:40;;;;;;;3.85;1.40;;;18.90;99.90;;;;;;4952699;28;20051;-52
2023/06/30 08:38:05;;;;;;;5.55;1.58;;;19.00;99.90;;;;;;4955638;28;20194;-57
2023/06/30 08:40:31;;;;;;;7.55;1.60;;;19.20;99.90;;;;;;4937941;28;20034;-56
2023/06/30 08:43:09;;;;;;;2.42;1.35;;;19.40;99.90;;;;;;4959368;28;20070;-57
2023/06/30 08:45:35;;;;;;;6.38;1.33;;;19.40;99.90;;;;;;4953725;28;20042;-57
2023/06/30 08:48:04;;;;;;;5.05;1.50;;;19.30;99.90;;;;;;4954340;28;20153;-57
2023/06/30 08:50:34;;;;;;;4.95;1.40;;;19.10;99.90;;;;;;4954859;28;20043;-56
2023/06/30 08:53:00;;;;;;;5.03;1.60;;;19.00;99.90;;;;;;4952702;28;20044;-56
2023/06/30 08:55:26;;;;;;;2.58;1.20;;;19.00;99.90;;;;;;4955061;28;20049;-56
2023/06/30 08:57:58;;;;;;;4.97;1.58;;;18.90;99.90;;;;;;4954263;28;20062;-56
2023/06/30 09:00:24;;;;;;;7.97;2.05;;;19.00;99.90;;;;;;4953267;28;20094;-55
2023/06/30 09:02:53;;;;;;;3.35;1.50;;;18.90;99.90;;;;;;4953165;28;20043;-56
2023/06/30 09:05:22;;;;;;;5.95;1.30;;;19.00;99.90;;;;;;4955200;28;20054;-55
2023/06/30 09:07:56;;;;;;;5.97;1.70;;;19.00;99.90;;;;;;4934936;28;20053;-56
2023/06/30 09:10:26;;;;;;;7.47;1.33;;;19.20;99.90;;;;;;4955281;28;20396;-55
2023/06/30 09:12:57;;;;;;;3.65;1.30;;;19.30;99.90;;;;;;4955729;28;20043;-57
2023/06/30 09:15:24;;;;;;;7.10;1.50;;;19.20;99.90;;;;;;4937914;28;20043;-56
2023/06/30 09:17:52;;;;;;;6.28;1.92;;;19.20;99.90;;;;;;4951629;28;20050;-55
2023/06/30 09:20:20;;;;;;;6.10;1.63;;;19.30;99.90;;;;;;4954536;28;20047;-56
2023/06/30 09:22:46;;;;;;;1.55;1.10;;;19.60;99.90;;;;;;4952331;28;20499;-57
2023/06/30 09:25:27;;;;;;;5.85;1.73;;;19.90;99.90;;;;;;4951704;28;20101;-55
2023/06/30 09:27:54;;;;;;;6.30;1.50;;;20.10;99.90;;;;;;4956732;28;20661;-57
2023/06/30 09:30:37;;;;;;;4.38;1.42;;;20.10;99.90;;;;;;4958277;28;20583;-57
2023/06/30 09:33:03;;;;;;;;;;;20.10;99.80;;;;;;4960856;28;20145;-57
2023/06/30 09:35:40;;;;;;;3.00;1.10;;;20.20;99.90;;;;;;4957965;28;19917;-57
2023/06/30 09:38:10;;;;;;;6.05;1.45;;;20.50;98.90;;;;;;4956892;28;20051;-57
2023/06/30 09:40:36;;;;;;;5.18;1.33;;;20.70;98.70;;;;;;4958819;28;20247;-55
2023/06/30 09:43:02;;;;;;;2.60;1.30;;;21.00;97.90;;;;;;4930584;28;20042;-57
2023/06/30 09:45:27;;;;;;;3.13;1.10;;;21.20;97.40;;;;;;4944525;28;20042;-56
2023/06/30 09:47:54;;;;;;;4.93;1.25;;;21.10;97.10;;;;;;4959359;28;20054;-56
2023/06/30 09:50:29;;;;;;;4.25;1.67;;;20.90;96.70;;;;;;4958133;28;20499;-57
2023/06/30 09:52:55;;;;;;;4.20;1.52;;;20.60;96.10;;;;;;4956015;28;20065;-57
2023/06/30 09:55:21;;;;;;;3.45;1.30;;;20.50;96.80;;;;;;4941864;28;20035;-55
2023/06/30 09:57:46;;;;;;;2.97;1.30;;;20.70;96.90;;;;;;4911202;28;20660;-57
2023/06/30 10:00:16;;;;;;;2.72;1.20;;;21.00;96.60;;;;;;4954090;28;20134;-56
2023/06/30 10:02:43;;;;;;;4.05;1.33;;;21.10;95.30;;;;;;4957100;28;20051;-56
2023/06/30 10:05:09;;;;;;;4.70;1.40;;;21.20;94.40;;;;;;4954141;28;20050;-55
2023/06/30 10:07:36;;;;;;;5.13;1.63;;;21.30;93.90;;;;;;4954676;28;20088;-57
2023/06/30 10:10:03;;;;;;;4.35;1.35;;;21.40;93.50;;;;;;4955958;28;20522;-55
2023/06/30 10:12:35;;;;;;;3.42;1.58;;;21.40;93.50;;;;;;4942768;28;20117;-54
2023/06/30 10:15:02;;;;;;;3.75;1.33;;;21.20;92.90;;;;;;4944175;28;20039;-52
2023/06/30 10:17:30;;;;;;;3.00;1.17;;;21.00;92.90;;;;;;4957215;28;20047;-56
2023/06/30 10:19:56;;;;;;;2.92;1.20;;;21.00;92.40;;;;;;4954247;28;20070;-56
2023/06/30 10:22:22;;;;;;;5.90;1.23;;;21.20;92.30;;;;;;4953346;28;20396;-53
2023/06/30 10:24:49;;;;;;;4.65;1.38;;;21.50;92.00;;;;;;4947247;28;20038;-56
2023/06/30 10:27:18;;;;;;;3.13;1.25;;;21.80;91.40;;;;;;4954564;28;20578;-57
2023/06/30 10:29:46;;;;;;;5.82;1.55;;;21.90;90.60;;;;;;4956875;28;20050;-54
2023/06/30 10:32:12;;;;;;;6.60;1.50;;;21.90;89.70;;;;;;4955771;28;20484;-57
2023/06/30 10:34:38;;;;;;;2.80;1.60;;;21.90;88.90;;;;;;4924390;28;20053;-56
2023/06/30 10:37:05;;;;;;;4.25;1.42;;;22.00;89.40;;;;;;4952474;28;20051;-55
2023/06/30 10:39:31;;;;;;;3.85;1.50;;;22.20;89.80;;;;;;4938624;28;20785;-54
2023/06/30 10:41:57;;;;;;;5.80;1.40;;;22.20;88.90;;;;;;4945618;28;20058;-57
2023/06/30 10:44:37;;;;;;;3.17;1.50;;;22.20;88.10;;;;;;4939007;28;20051;-56
2023/06/30 10:47:03;;;;;;;3.22;1.25;;;22.20;86.90;;;;;;4957778;28;20500;-57
2023/06/30 10:49:34;;;;;;;3.33;1.38;;;22.40;87.70;;;;;;4959095;28;20899;-56
2023/06/30 10:52:08;;;;;;;3.70;1.85;;;22.60;88.60;;;;;;4953759;28;20039;-56
2023/06/30 10:54:41;;;;;;;4.35;1.30;;;22.90;87.00;;;;;;4959266;28;20294;-56
2023/06/30 10:57:14;;;;;;;5.20;1.60;;;22.90;85.00;;;;;;4932560;28;20042;-56
2023/06/30 10:59:41;;;;;;;;;;;22.80;83.90;;;;;;4956816;28;20051;-55
2023/06/30 11:02:18;;;;;;;8.40;1.50;;;22.90;84.40;;;;;;4957507;28;20008;-56
2023/06/30 11:04:48;;;;;;;8.23;1.60;;;22.80;85.00;;;;;;4955508;28;20051;-54
2023/06/30 11:07:31;;;;;;;5.13;1.30;;;22.70;84.80;;;;;;4948894;28;20583;-57
2023/06/30 11:09:59;;;;;;;6.07;1.60;;;22.60;82.10;;;;;;4948690;28;20054;-57
2023/06/30 11:12:27;;;;;;;5.13;1.50;;;22.30;82.20;;;;;;4954884;28;20046;-56
2023/06/30 11:14:59;;;;;;;5.90;1.85;;;22.40;82.40;;;;;;4960181;28;20049;-56
2023/06/30 11:17:51;;;;;;;6.30;1.58;;;22.60;81.20;;;;;;4943377;28;20042;-57
2023/06/30 11:20:18;;;;;;;3.30;1.30;;;22.70;80.50;;;;;;4958581;28;20126;-53
2023/06/30 11:22:59;;;;;;;6.95;1.50;;;23.00;79.30;;;;;;4958550;28;20101;-57
2023/06/30 11:25:25;;;;;;;4.70;1.20;;;23.40;79.30;;;;;;4959076;28;20967;-56
2023/06/30 11:27:51;;;;;;;6.35;1.50;;;23.70;76.80;;;;;;4958950;28;20134;-55
2023/06/30 11:30:18;;;;;;;3.97;1.23;;;23.90;76.00;;;;;;4941175;28;20760;-57
2023/06/30 11:32:46;;;;;;;3.50;1.25;;;24.10;75.10;;;;;;4958389;28;20486;-57
2023/06/30 11:35:12;;;;;;;6.90;1.60;;;24.20;74.30;;;;;;4961914;28;20051;-57
2023/06/30 11:37:38;;;;;;;7.32;1.83;;;24.30;74.10;;;;;;4951623;28;20043;-55
2023/06/30 11:40:07;;;;;;;3.50;1.50;;;24.40;74.00;;;;;;4959989;28;20069;-54
2023/06/30 11:42:38;;;;;;;5.40;1.42;;;24.60;73.80;;;;;;4962044;28;20111;-57
2023/06/30 11:45:05;;;;;;;2.00;1.10;;;24.60;72.40;;;;;;4956364;28;20515;-55
2023/06/30 11:47:30;;;;;;;3.53;1.33;;;24.70;71.70;;;;;;4958689;28;20071;-57
2023/06/30 11:49:56;;;;;;;2.55;1.30;;;24.70;70.90;;;;;;4959610;28;22353;-56
2023/06/30 11:52:22;;;;;;;5.90;1.45;;;24.80;69.90;;;;;;4936018;28;20101;-57
2023/06/30 11:54:48;;;;;;;4.85;1.40;;;24.90;69.30;;;;;;4956761;28;20043;-57
2023/06/30 11:57:14;;;;;;;3.08;1.20;;;25.00;69.50;;;;;;4936444;28;20471;-55
2023/06/30 11:59:39;;;;;;;3.30;1.67;;;25.10;71.10;;;;;;4956480;28;20058;-55
2023/06/30 12:02:05;;;;;;;7.00;1.50;;;25.10;70.60;;;;;;4960459;28;20050;-56
2023/06/30 12:04:33;;;;;;;3.13;1.45;;;25.00;69.30;;;;;;4961528;28;20039;-56
2023/06/30 12:07:02;;;;;;;4.35;1.52;;;24.90;69.40;;;;;;4935454;28;20039;-56
2023/06/30 12:09:29;;;;;;;5.93;1.58;;;24.60;68.70;;;;;;4929920;28;20050;-57
2023/06/30 12:11:56;;;;;;;7.88;1.60;;;24.40;68.90;;;;;;4955686;28;20083;-54
2023/06/30 12:14:25;;;;;;;2.65;1.42;;;24.30;69.10;;;;;;4950727;28;20043;-54
2023/06/30 12:16:53;;;;;;;4.20;1.33;;;24.50;68.40;;;;;;4919018;28;20070;-53
2023/06/30 12:19:24;;;;;;;3.00;1.60;;;24.60;67.40;;;;;;4952422;28;20046;-52
2023/06/30 12:22:00;;;;;;;2.97;1.30;;;24.90;66.70;;;;;;4948372;28;20401;-56
2023/06/30 12:24:33;;;;;;;4.43;1.20;;;25.00;65.60;;;;;;4943034;28;20188;-56
2023/06/30 12:27:03;;;;;;;4.45;1.42;;;25.20;64.60;;;;;;4953333;28;20507;-56
2023/06/30 12:29:30;;;;;;;4.63;1.40;;;25.40;66.80;;;;;;4933106;28;20046;-55
2023/06/30 12:31:56;;;;;;;4.85;1.38;;;25.60;65.80;;;;;;4943682;28;20401;-57
2023/06/30 12:34:32;;;;;;;5.28;1.70;;;25.60;64.10;;;;;;4956478;28;20050;-50
2023/06/30 12:36:59;;;;;;;3.15;1.52;;;25.60;63.90;;;;;;4932827;28;20055;-49
2023/06/30 12:39:24;;;;;;;3.22;1.55;;;25.40;62.80;;;;;;4947375;28;20074;-53
2023/06/30 12:41:50;;;;;;;2.03;1.30;;;25.20;63.20;;;;;;4954706;28;20051;-57
2023/06/30 12:44:17;;;;;;;4.40;1.83;;;25.10;64.10;;;;;;4958287;28;20090;-57
2023/06/30 12:46:43;;;;;;;6.80;1.77;;;25.20;64.50;;;;;;4938090;28;20070;-57